Plum Springs, Kentucky
Current Conditions -  °F | °C
As of 9:53 AM on Sunday 25 Jan 2015 (Local Time) from KBWG Reporting Station
Clear Clear  
Wind Chill: 40°   Ceiling: Unl
Heat Index: 46°   Visibility: 10mi
Dew Point: 34°   Wind: 13mph
Humidity: 63%   Direction: 200°SSW
Pressure: 29.73"   Gusts: 22mph
Location:  37.1031°N, 86.4201°W
Report Text: KBWG 251553Z AUTO 20011G19KT 10SM CLR 08/01 A2973 RMK AO2 SLP068 T00780011
Loading
Personal Weather Stations






























Interactive Weather Map New forecast layout! Learn more

10-Day Weather Forecast

Advertisements
Track Severe Weather on mobile